createdAt,value
2019-02-02T00:02:38.638Z,97964.53
2019-02-02T00:07:42.427Z,97988.98
2019-02-02T00:12:46.332Z,97994.67
2019-02-02T00:17:50.138Z,97994.67
2019-02-02T00:22:53.953Z,98001.70
2019-02-02T00:27:57.781Z,97998.88
2019-02-02T00:33:01.586Z,98009.41
2019-02-02T00:38:05.467Z,98009.41
2019-02-02T00:43:09.256Z,97994.52
2019-02-02T00:48:13.122Z,97994.52
2019-02-02T00:53:17.012Z,97981.44
2019-02-02T00:58:20.868Z,97977.45
2019-02-02T01:03:24.681Z,97986.65
2019-02-02T01:08:28.510Z,97989.66
2019-02-02T01:13:32.381Z,97989.66
2019-02-02T01:18:36.188Z,98000.91
2019-02-02T01:23:40.092Z,98002.91
2019-02-02T01:28:43.892Z,98012.97
2019-02-02T01:33:47.693Z,98012.97
2019-02-02T01:38:51.488Z,97974.76
2019-02-02T01:43:55.297Z,97958.69
2019-02-02T01:48:59.070Z,97958.69
2019-02-02T01:54:02.864Z,97962.73
2019-02-02T01:59:06.726Z,97962.73
2019-02-02T02:04:10.550Z,97950.02
2019-02-02T02:09:14.325Z,97955.85
2019-02-02T02:14:18.120Z,97942.66
2019-02-02T02:19:21.915Z,97952.20
2019-02-02T02:24:25.783Z,97974.30
2019-02-02T02:29:29.562Z,97982.19
2019-02-02T02:34:33.362Z,98000.59
2019-02-02T02:39:37.206Z,98024.55
2019-02-02T02:44:40.995Z,98007.66
2019-02-02T02:49:44.790Z,97997.26
2019-02-02T02:54:48.639Z,97990.58
2019-02-02T02:59:52.493Z,97991.73
2019-02-02T03:04:56.265Z,97963.77
2019-02-02T03:10:00.102Z,97963.92
2019-02-02T03:15:04.777Z,97963.92
2019-02-02T03:20:09.061Z,97991.22
2019-02-02T03:25:15.192Z,97991.22
2019-02-02T03:30:19.827Z,98000.62
2019-02-02T03:35:23.720Z,97995.27
2019-02-02T03:40:27.554Z,97995.27
2019-02-02T03:45:31.421Z,97980.53
2019-02-02T03:50:35.237Z,98006.48
2019-02-02T03:55:39.026Z,97954.10
2019-02-02T04:00:42.822Z,97954.10
2019-02-02T04:05:46.706Z,97969.67
2019-02-02T04:10:50.593Z,97987.39
2019-02-02T04:15:54.351Z,97987.39
2019-02-02T04:20:58.153Z,97970.33
2019-02-02T04:26:01.901Z,97970.33
2019-02-02T04:31:05.991Z,98003.48
2019-02-02T04:36:09.781Z,98003.48
2019-02-02T04:41:13.615Z,98023.23
2019-02-02T04:46:17.497Z,98006.69
2019-02-02T04:51:21.457Z,98005.00
2019-02-02T04:56:25.274Z,98011.36
2019-02-02T05:01:29.051Z,98022.41
2019-02-02T05:06:32.885Z,98020.08
2019-02-02T05:11:36.643Z,98032.13
2019-02-02T05:16:40.451Z,98028.44
2019-02-02T05:21:44.194Z,98045.83
2019-02-02T05:26:47.970Z,98049.20
2019-02-02T05:31:51.814Z,98031.45
2019-02-02T05:36:55.653Z,98015.88
2019-02-02T05:41:59.420Z,98015.03
2019-02-02T05:47:03.236Z,98024.58
2019-02-02T05:52:07.090Z,98034.47
2019-02-02T05:57:10.861Z,98033.45
2019-02-02T06:02:14.616Z,98033.45
2019-02-02T06:07:18.401Z,98034.47
2019-02-02T06:12:22.210Z,98054.55
2019-02-02T06:17:25.960Z,98054.55
2019-02-02T06:22:29.758Z,98057.54
2019-02-02T06:27:33.591Z,98071.13
2019-02-02T06:32:37.428Z,98079.16
2019-02-02T06:37:41.227Z,98092.71
2019-02-02T06:42:45.159Z,98124.83
2019-02-02T06:47:49.048Z,98124.83
2019-02-02T06:52:52.852Z,98125.33
2019-02-02T06:57:56.621Z,98129.34
2019-02-02T07:03:00.382Z,98114.62
2019-02-02T07:08:04.236Z,98114.62
2019-02-02T07:13:08.022Z,98105.44
2019-02-02T07:18:11.880Z,98104.09
2019-02-02T07:23:15.711Z,98104.09
2019-02-02T07:28:19.470Z,98126.68
2019-02-02T07:33:23.236Z,98131.20
2019-02-02T07:38:27.046Z,98146.27
2019-02-02T07:43:30.814Z,98146.27
2019-02-02T07:48:34.720Z,98139.41
2019-02-02T07:53:38.609Z,98159.16
2019-02-02T07:58:42.404Z,98159.16
2019-02-02T08:03:46.295Z,98181.78
2019-02-02T08:08:50.117Z,98181.78
2019-02-02T08:13:53.916Z,98202.15
2019-02-02T08:18:58.005Z,98220.71
2019-02-02T08:24:01.798Z,98220.71
2019-02-02T08:29:05.622Z,98229.24
2019-02-02T08:34:09.435Z,98229.24
2019-02-02T08:39:13.235Z,98238.74
2019-02-02T08:44:17.028Z,98238.74
2019-02-02T08:49:20.811Z,98249.02
2019-02-02T08:54:24.614Z,98245.84
2019-02-02T08:59:28.439Z,98254.91
2019-02-02T09:04:32.368Z,98253.16
2019-02-02T09:09:36.261Z,98242.13
2019-02-02T09:14:40.061Z,98244.62
2019-02-02T09:19:43.956Z,98228.70
2019-02-02T09:24:48.184Z,98263.55
2019-02-02T09:29:51.970Z,98263.55
2019-02-02T09:34:55.758Z,98261.71
2019-02-02T09:39:59.799Z,98260.58
2019-02-02T09:45:03.745Z,98270.14
2019-02-02T09:50:09.521Z,98266.80
2019-02-02T09:55:15.089Z,98279.48
2019-02-02T10:00:21.190Z,98279.48
2019-02-02T10:05:25.021Z,98286.16
2019-02-02T10:10:30.451Z,98285.32
2019-02-02T10:15:34.235Z,98277.26
2019-02-02T10:20:38.213Z,98279.09
2019-02-02T10:25:42.165Z,98270.72
2019-02-02T10:30:46.035Z,98249.28
2019-02-02T10:35:49.905Z,98249.28
2019-02-02T10:40:53.724Z,98263.23
2019-02-02T10:45:57.537Z,98268.64
2019-02-02T10:51:01.323Z,98281.72
2019-02-02T10:56:05.125Z,98281.72
2019-02-02T11:01:08.908Z,98302.16
2019-02-02T11:06:12.917Z,98301.00
2019-02-02T11:11:16.795Z,98309.55
2019-02-02T11:16:20.640Z,98303.31
2019-02-02T11:21:24.616Z,98303.31
2019-02-02T11:26:29.555Z,98327.30
2019-02-02T11:31:33.518Z,98333.01
2019-02-02T11:36:37.312Z,98325.45
2019-02-02T11:41:41.119Z,98325.30
2019-02-02T11:46:45.101Z,98342.86
2019-02-02T11:51:48.914Z,98363.50
2019-02-02T11:56:52.717Z,98363.50
2019-02-02T12:01:56.505Z,98350.95
2019-02-02T12:07:52.477Z,98360.86
2019-02-02T12:12:56.423Z,98374.42
2019-02-02T12:18:00.205Z,98386.64
2019-02-02T12:23:04.040Z,98384.46
2019-02-02T12:28:09.309Z,98378.81
2019-02-02T12:33:13.643Z,98406.16
2019-02-02T12:38:17.477Z,98414.25
2019-02-02T12:43:21.578Z,98404.36
2019-02-02T12:48:25.431Z,98410.42
2019-02-02T12:53:29.633Z,98404.87
2019-02-02T12:58:33.508Z,98420.98
2019-02-02T13:03:37.444Z,98420.98
2019-02-02T13:08:41.247Z,98443.81
2019-02-02T13:13:45.426Z,98443.81
2019-02-02T13:18:49.355Z,98436.41
2019-02-02T13:23:53.273Z,98465.94
2019-02-02T13:28:57.676Z,98466.09
2019-02-02T13:34:01.820Z,98469.42
2019-02-02T13:39:09.560Z,98479.14
2019-02-02T13:44:13.535Z,98493.85
2019-02-02T13:49:17.513Z,98493.85
2019-02-02T13:54:21.583Z,98498.55
2019-02-02T13:59:25.572Z,98493.81
2019-02-02T14:04:29.663Z,98486.28
2019-02-02T14:09:33.448Z,98488.66
2019-02-02T14:14:37.373Z,98491.84
2019-02-02T14:19:41.316Z,98492.02
2019-02-02T14:24:45.106Z,98511.28
2019-02-02T14:29:49.068Z,98515.02
2019-02-02T14:34:53.337Z,98510.52
2019-02-02T14:39:57.154Z,98510.52
2019-02-02T14:45:01.272Z,98526.58
2019-02-02T14:50:08.119Z,98542.20
2019-02-02T14:55:15.197Z,98578.27
2019-02-02T15:00:20.959Z,98578.27
2019-02-02T15:05:24.838Z,98612.91
2019-02-02T15:10:28.808Z,98632.47
2019-02-02T15:15:32.868Z,98632.47
2019-02-02T15:20:37.727Z,98652.80
2019-02-02T15:25:51.246Z,98660.78
2019-02-02T15:30:55.481Z,98667.94
2019-02-02T15:35:59.403Z,98667.94
2019-02-02T15:41:03.215Z,98691.89
2019-02-02T15:46:07.273Z,98691.89
2019-02-02T15:51:11.330Z,98682.56
2019-02-02T15:56:15.606Z,98687.57
2019-02-02T16:01:19.470Z,98687.57
2019-02-02T16:06:23.379Z,98695.80
2019-02-02T16:11:27.189Z,98709.34
2019-02-02T16:16:31.245Z,98726.61
2019-02-02T16:21:35.093Z,98735.94
2019-02-02T16:26:38.888Z,98735.94
2019-02-02T16:31:42.915Z,98742.38
2019-02-02T16:36:46.883Z,98767.28
2019-02-02T16:41:50.847Z,98760.08
2019-02-02T16:46:54.768Z,98758.87
2019-02-02T16:51:58.998Z,98758.87
2019-02-02T16:57:03.400Z,98764.16
2019-02-02T17:02:07.196Z,98762.20
2019-02-02T17:07:11.183Z,98769.34
2019-02-02T17:12:15.303Z,98773.35
2019-02-02T17:17:19.271Z,98773.35
2019-02-02T17:22:23.075Z,98791.75
2019-02-02T17:27:27.128Z,98789.68
2019-02-02T17:32:31.376Z,98812.22
2019-02-02T17:37:35.380Z,98823.67
2019-02-02T17:42:39.201Z,98834.75
2019-02-02T17:47:43.028Z,98834.75
2019-02-02T17:52:47.577Z,98846.50
2019-02-02T17:57:51.399Z,98867.59
2019-02-02T18:02:55.295Z,98878.72
2019-02-02T18:07:59.412Z,98878.72
2019-02-02T18:13:03.413Z,98882.36
2019-02-02T18:18:07.537Z,98886.56
2019-02-02T18:23:11.632Z,98907.88
2019-02-02T18:28:16.172Z,98926.67
2019-02-02T18:33:20.274Z,98927.13
2019-02-02T18:38:24.219Z,98931.48
2019-02-02T18:43:28.986Z,98944.80
2019-02-02T18:48:32.793Z,98947.82
2019-02-02T18:53:36.698Z,98933.84
2019-02-02T18:58:41.324Z,98955.56
2019-02-02T19:03:46.594Z,98970.83
2019-02-02T19:08:51.673Z,98974.13
2019-02-02T19:13:56.704Z,98974.13
2019-02-02T19:19:02.708Z,98990.41
2019-02-02T19:24:09.227Z,99010.94
2019-02-02T19:29:15.748Z,99014.14
2019-02-02T19:34:22.653Z,99015.47
2019-02-02T19:39:29.281Z,99008.95
2019-02-02T19:44:35.431Z,99008.95
2019-02-02T19:49:42.268Z,99023.11
2019-02-02T19:54:50.143Z,99026.37
2019-02-02T19:59:57.503Z,99030.41
2019-02-02T20:05:03.749Z,99033.42
2019-02-02T20:10:12.817Z,99031.33
2019-02-02T20:15:21.885Z,99044.85
2019-02-02T20:20:30.155Z,99044.85
2019-02-02T20:25:37.280Z,99063.91
2019-02-02T20:30:45.052Z,99069.84
2019-02-02T20:35:52.958Z,99088.36
2019-02-02T20:41:01.430Z,99088.36
2019-02-02T20:46:07.789Z,99120.06
2019-02-02T20:51:13.775Z,99101.37
2019-02-02T20:56:20.430Z,99119.47
2019-02-02T21:01:26.568Z,99137.14
2019-02-02T21:06:32.013Z,99151.05
2019-02-02T21:11:37.356Z,99148.26
2019-02-02T21:16:43.547Z,99150.90
2019-02-02T21:21:49.608Z,99168.42
2019-02-02T21:26:55.461Z,99168.42
2019-02-02T21:32:00.751Z,99173.20
2019-02-02T21:37:06.219Z,99167.61
2019-02-02T21:42:11.468Z,99164.23
2019-02-02T21:47:17.316Z,99175.31
2019-02-02T21:52:22.218Z,99195.04
2019-02-02T21:57:26.850Z,99209.30
2019-02-02T22:02:32.931Z,99209.30
2019-02-02T22:07:43.723Z,99177.41
2019-02-02T22:12:48.314Z,99190.73
2019-02-02T22:17:52.877Z,99200.55
2019-02-02T22:22:57.299Z,99216.77
2019-02-02T22:28:01.872Z,99210.98
2019-02-02T22:33:05.969Z,99210.98
2019-02-02T22:38:09.829Z,99258.06
2019-02-02T22:43:13.670Z,99275.91
2019-02-02T22:48:17.707Z,99299.83
2019-02-02T22:53:21.535Z,99299.83
2019-02-02T22:58:25.402Z,99353.77
2019-02-02T23:04:16.641Z,99358.99
2019-02-02T23:09:55.155Z,99372.47
2019-02-02T23:15:28.991Z,99378.62
2019-02-02T23:20:32.776Z,99378.62
2019-02-02T23:25:36.742Z,99383.48
2019-02-02T23:30:40.520Z,99378.91
2019-02-02T23:35:44.310Z,99366.89
2019-02-02T23:40:48.595Z,99366.25
2019-02-02T23:45:52.388Z,99366.25
2019-02-02T23:50:56.176Z,99347.06
2019-02-02T23:55:59.988Z,99347.06
